Time;durP1;ratioP1;P1;durP2;ratioP2;P2;SDS_P1;SDS_P2;PMS_P1;PMS_P2;Temp;Humidity;BMP_temperature;BMP_pressure;BME280_temperature;BME280_humidity;BME280_pressure;Samples;Min_cycle;Max_cycle;Signal;HPM_P1;HPM_P2
2022/01/19 00:00:38;;;;;;;4.93;2.00;;;-0.10;99.90;;;;;;5057488;28;20080;-81
2022/01/19 00:03:04;;;;;;;5.95;1.80;;;-0.10;99.90;;;;;;5047652;28;20029;-81
2022/01/19 00:05:30;;;;;;;7.35;2.03;;;-0.10;99.90;;;;;;5040807;28;20359;-80
2022/01/19 00:07:56;;;;;;;9.50;2.13;;;-0.10;99.90;;;;;;5023782;28;20033;-81
2022/01/19 00:10:27;;;;;;;6.13;2.13;;;-0.10;99.90;;;;;;5042780;28;20025;-81
2022/01/19 00:12:57;;;;;;;5.33;1.77;;;-0.10;99.90;;;;;;5042733;28;20034;-80
2022/01/19 00:15:24;;;;;;;3.10;1.40;;;-0.10;99.90;;;;;;5043472;28;20272;-82
2022/01/19 00:17:56;;;;;;;4.90;1.48;;;-0.10;99.90;;;;;;5024738;28;20029;-79
2022/01/19 00:20:22;;;;;;;2.85;1.48;;;-0.10;99.90;;;;;;5044928;28;20024;-78
2022/01/19 00:22:49;;;;;;;6.85;1.90;;;-0.10;99.90;;;;;;5050236;28;20109;-78
2022/01/19 00:25:17;;;;;;;2.15;1.15;;;-0.10;99.90;;;;;;5052695;28;20017;-80
2022/01/19 00:27:42;;;;;;;6.07;1.83;;;-0.10;99.90;;;;;;5052405;28;20186;-81
2022/01/19 00:30:09;;;;;;;4.75;1.63;;;-0.10;99.90;;;;;;5033816;28;20037;-80
2022/01/19 00:32:35;;;;;;;2.97;1.95;;;-0.10;99.90;;;;;;5059922;28;20083;-79
2022/01/19 00:35:02;;;;;;;4.80;1.83;;;-0.20;99.90;;;;;;5068366;28;20025;-79
2022/01/19 00:37:28;;;;;;;7.85;2.53;;;-0.20;99.90;;;;;;5052326;28;20048;-78
2022/01/19 00:39:54;;;;;;;4.47;1.77;;;-0.20;99.90;;;;;;5067525;28;20029;-80
2022/01/19 00:42:20;;;;;;;5.97;1.80;;;-0.20;99.90;;;;;;5065138;28;20576;-80
2022/01/19 00:44:46;;;;;;;5.90;1.85;;;-0.20;99.90;;;;;;5044769;28;20354;-80
2022/01/19 00:47:12;;;;;;;9.70;2.15;;;-0.30;99.90;;;;;;5043982;28;20334;-79
2022/01/19 00:49:38;;;;;;;5.80;2.15;;;-0.30;99.90;;;;;;5059448;28;20037;-80
2022/01/19 00:52:04;;;;;;;4.28;1.65;;;-0.30;99.90;;;;;;5060751;28;20066;-80
2022/01/19 00:54:30;;;;;;;8.98;2.38;;;-0.30;99.90;;;;;;5060686;28;20033;-81
2022/01/19 00:56:56;;;;;;;7.22;2.03;;;-0.30;99.90;;;;;;5042440;28;20029;-79
2022/01/19 00:59:21;;;;;;;8.23;2.67;;;-0.30;99.90;;;;;;5059823;28;20053;-79
2022/01/19 01:01:47;;;;;;;8.90;2.15;;;-0.30;99.90;;;;;;5054487;28;20017;-81
2022/01/19 01:04:14;;;;;;;3.83;1.77;;;-0.30;99.90;;;;;;5039271;28;20512;-81
2022/01/19 01:06:40;;;;;;;3.97;1.95;;;-0.30;99.90;;;;;;5059766;28;20098;-78
2022/01/19 01:09:05;;;;;;;6.28;1.67;;;-0.30;99.90;;;;;;5059198;28;20064;-79
2022/01/19 01:11:36;;;;;;;3.65;1.73;;;-0.40;99.90;;;;;;5058788;28;20486;-81
2022/01/19 01:16:36;;;;;;;6.18;2.35;;;-0.40;99.90;;;;;;5076492;28;20052;-79
2022/01/19 01:19:07;;;;;;;7.47;2.15;;;-0.40;99.90;;;;;;5047490;28;20024;-77
2022/01/19 01:21:33;;;;;;;9.15;2.15;;;-0.40;99.90;;;;;;5082341;22;20045;-80
2022/01/19 01:24:00;;;;;;;6.28;2.33;;;-0.40;99.90;;;;;;5052174;28;20029;-81
2022/01/19 01:26:25;;;;;;;9.40;2.67;;;-0.40;99.90;;;;;;5041086;28;20036;-81
2022/01/19 01:28:51;;;;;;;7.60;2.35;;;-0.40;99.90;;;;;;5043484;28;20029;-80
2022/01/19 01:31:17;;;;;;;7.75;2.80;;;-0.50;99.90;;;;;;5055700;28;20064;-81
2022/01/19 01:33:43;;;;;;;7.80;2.50;;;-0.50;99.90;;;;;;5050795;28;20080;-80
2022/01/19 01:36:09;;;;;;;16.40;2.60;;;-0.50;99.90;;;;;;5051141;28;20026;-80
2022/01/19 01:38:37;;;;;;;8.52;2.28;;;-0.50;99.90;;;;;;5050928;28;20068;-79
2022/01/19 01:41:03;;;;;;;9.05;2.63;;;-0.50;99.90;;;;;;5051205;28;20077;-80
2022/01/19 01:43:29;;;;;;;5.20;2.78;;;-0.50;99.90;;;;;;5033947;28;20032;-80
2022/01/19 01:46:01;;;;;;;7.55;2.63;;;-0.50;99.90;;;;;;5051447;28;20041;-79
2022/01/19 01:48:27;;;;;;;8.88;2.40;;;-0.50;99.90;;;;;;5047400;28;20024;-79
2022/01/19 01:53:38;;;;;;;5.65;1.83;;;-0.60;99.90;;;;;;5041978;28;20056;-79
2022/01/19 01:56:10;;;;;;;8.55;2.45;;;-0.60;99.90;;;;;;5023635;28;20034;-81
2022/01/19 01:58:40;;;;;;;8.77;2.65;;;-0.60;99.90;;;;;;5023100;28;20048;-81
2022/01/19 02:01:07;;;;;;;11.80;2.72;;;-0.60;99.90;;;;;;5015340;28;20050;-82
2022/01/19 02:03:38;;;;;;;12.55;2.50;;;-0.60;99.90;;;;;;5041655;28;20092;-81
2022/01/19 02:08:55;;;;;;;3.45;2.10;;;-0.60;99.90;;;;;;5055880;28;20029;-80
2022/01/19 02:22:49;;;;;;;9.15;3.22;;;-0.60;99.90;;;;;;5040415;28;20113;-81
2022/01/19 02:25:16;;;;;;;8.10;2.42;;;-0.70;99.90;;;;;;5022315;28;20490;-82
2022/01/19 02:41:26;;;;;;;9.98;3.47;;;-0.80;99.90;;;;;;5040161;28;20044;-81
2022/01/19 02:43:52;;;;;;;8.85;2.97;;;-0.80;99.90;;;;;;5022301;28;20029;-80
2022/01/19 02:51:54;;;;;;;6.85;2.97;;;-0.80;99.90;;;;;;5030974;28;20041;-80
2022/01/19 02:54:24;;;;;;;8.20;3.10;;;-0.80;99.90;;;;;;5039928;28;20029;-80
2022/01/19 02:56:54;;;;;;;6.03;3.00;;;-0.80;99.90;;;;;;5040132;28;20036;-80
2022/01/19 03:10:08;;;;;;;5.45;2.28;;;-0.70;99.90;;;;;;5028852;28;20041;-80
2022/01/19 03:12:35;;;;;;;5.32;3.00;;;-0.70;99.90;;;;;;5029371;28;20030;-81
2022/01/19 03:15:00;;;;;;;4.57;2.42;;;-0.70;99.90;;;;;;5025602;28;20109;-81
2022/01/19 03:17:26;;;;;;;3.47;2.80;;;-0.70;99.90;;;;;;5024107;28;20132;-81
2022/01/19 03:19:52;;;;;;;6.30;2.30;;;-0.70;99.90;;;;;;5024935;28;20492;-81
2022/01/19 03:22:21;;;;;;;6.32;2.35;;;-0.70;99.90;;;;;;5023218;28;20409;-81
2022/01/19 03:24:51;;;;;;;6.90;2.80;;;-0.70;99.90;;;;;;5024001;28;20050;-80
2022/01/19 03:27:17;;;;;;;7.75;3.13;;;-0.70;99.90;;;;;;5024667;28;20032;-81
2022/01/19 03:29:44;;;;;;;7.47;2.97;;;-0.80;99.90;;;;;;5023652;28;20022;-80
2022/01/19 03:32:10;;;;;;;9.02;2.95;;;-0.80;99.90;;;;;;5039063;28;20083;-81
2022/01/19 03:34:37;;;;;;;7.35;3.10;;;-0.80;99.90;;;;;;5042980;28;20017;-81
2022/01/19 03:37:03;;;;;;;7.00;2.60;;;-0.80;99.90;;;;;;5043146;28;20029;-81
2022/01/19 03:39:30;;;;;;;6.72;3.05;;;-0.80;99.90;;;;;;5042521;28;20021;-80
2022/01/19 03:41:56;;;;;;;5.72;2.88;;;-0.90;99.90;;;;;;5023864;28;20025;-79
2022/01/19 03:44:22;;;;;;;6.97;2.90;;;-0.90;99.90;;;;;;5042061;28;20516;-81
2022/01/19 03:46:56;;;;;;;5.53;2.88;;;-0.90;99.90;;;;;;5042840;28;20033;-80
2022/01/19 03:49:24;;;;;;;6.32;2.80;;;-0.90;99.90;;;;;;5025120;28;20029;-82
2022/01/19 03:51:59;;;;;;;4.43;2.60;;;-0.90;99.90;;;;;;5042535;28;20040;-82
2022/01/19 03:54:37;;;;;;;6.80;3.33;;;-0.90;99.90;;;;;;5025002;28;20029;-82
2022/01/19 03:57:03;;;;;;;4.82;2.78;;;-0.90;99.90;;;;;;5042186;28;20091;-81
2022/01/19 03:59:29;;;;;;;5.85;2.88;;;-0.90;99.90;;;;;;5041784;28;20113;-81
2022/01/19 04:01:57;;;;;;;5.50;2.92;;;-0.80;99.90;;;;;;5042261;28;20037;-81
2022/01/19 04:07:02;;;;;;;5.30;3.42;;;-0.80;99.90;;;;;;5042271;28;20482;-81
2022/01/19 04:09:30;;;;;;;12.30;4.30;;;-0.70;99.90;;;;;;5024574;28;20171;-80
2022/01/19 04:11:56;;;;;;;7.78;3.75;;;-0.70;99.90;;;;;;5041876;28;20048;-81
2022/01/19 04:14:22;;;;;;;8.52;3.67;;;-0.70;99.90;;;;;;5042304;28;20113;-80
2022/01/19 04:16:59;;;;;;;8.02;3.60;;;-0.60;99.90;;;;;;5041879;28;20092;-80
2022/01/19 04:19:44;;;;;;;7.93;3.95;;;-0.50;99.90;;;;;;5024165;28;20022;-81
2022/01/19 04:22:13;;;;;;;8.52;4.18;;;-0.30;99.90;;;;;;5041805;28;20403;-81
2022/01/19 04:24:40;;;;;;;8.55;4.75;;;-0.20;99.90;;;;;;5042603;28;20346;-81
2022/01/19 04:30:08;;;;;;;11.30;6.60;;;0.10;99.90;;;;;;5044318;28;20029;-84
2022/01/19 04:32:45;;;;;;;13.15;6.47;;;0.20;99.90;;;;;;5033725;28;20088;-84
2022/01/19 04:35:14;;;;;;;13.88;6.20;;;0.10;99.90;;;;;;5044050;28;20037;-84
2022/01/19 05:04:46;;;;;;;16.05;6.53;;;0.20;99.90;;;;;;5042295;28;20026;-80
2022/01/19 05:07:21;;;;;;;15.68;7.50;;;0.10;99.90;;;;;;5037804;28;20021;-79
2022/01/19 05:10:01;;;;;;;16.60;7.35;;;-0.10;99.90;;;;;;5055337;28;20029;-80
2022/01/19 05:15:11;;;;;;;14.05;7.53;;;-0.20;99.90;;;;;;5044441;28;20041;-81
2022/01/19 05:17:37;;;;;;;13.68;7.28;;;-0.30;99.90;;;;;;5024028;28;20050;-81
2022/01/19 05:20:08;;;;;;;11.73;7.70;;;-0.30;99.90;;;;;;5040586;28;20029;-80
2022/01/19 05:22:33;;;;;;;13.13;7.50;;;-0.30;99.90;;;;;;5040034;28;20041;-82
2022/01/19 05:25:00;;;;;;;13.05;7.15;;;-0.40;99.90;;;;;;5038124;28;20433;-82
2022/01/19 05:27:25;;;;;;;13.10;7.68;;;-0.40;99.90;;;;;;5041038;28;20060;-82
2022/01/19 05:29:52;;;;;;;12.73;6.55;;;-0.40;99.90;;;;;;5041427;28;20033;-82
2022/01/19 05:32:17;;;;;;;13.95;6.90;;;-0.30;99.90;;;;;;5041191;28;20033;-82
2022/01/19 05:34:43;;;;;;;14.55;7.00;;;-0.20;99.90;;;;;;5023856;28;20426;-82
2022/01/19 05:37:09;;;;;;;14.00;7.38;;;0.00;99.90;;;;;;5040608;28;20033;-82
2022/01/19 05:39:35;;;;;;;14.27;8.27;;;0.10;99.90;;;;;;5040931;28;20040;-82
2022/01/19 05:42:01;;;;;;;11.98;7.38;;;0.30;99.90;;;;;;5040887;28;20038;-82
2022/01/19 05:44:26;;;;;;;17.95;7.65;;;0.40;99.90;;;;;;5023488;28;20029;-82
2022/01/19 05:46:52;;;;;;;21.60;11.02;;;0.50;99.90;;;;;;5040809;28;20111;-82
2022/01/19 05:49:18;;;;;;;16.08;8.48;;;0.50;99.90;;;;;;5040941;28;20028;-82
2022/01/19 05:51:44;;;;;;;16.63;8.63;;;0.50;99.90;;;;;;5040718;28;20021;-82
2022/01/19 05:54:09;;;;;;;15.07;8.45;;;0.60;99.90;;;;;;5041329;28;20477;-81
2022/01/19 05:56:35;;;;;;;20.85;8.45;;;0.60;99.90;;;;;;5039761;28;20017;-81
2022/01/19 05:59:01;;;;;;;18.40;8.55;;;0.70;99.90;;;;;;5041067;28;20033;-81
2022/01/19 06:01:27;;;;;;;19.33;10.02;;;0.70;99.90;;;;;;5012583;28;20022;-81
2022/01/19 06:03:52;;;;;;;16.30;9.38;;;0.70;99.90;;;;;;5035781;28;20029;-81
2022/01/19 06:06:18;;;;;;;15.95;8.57;;;0.70;99.90;;;;;;5040253;28;20490;-82
2022/01/19 06:08:48;;;;;;;19.25;9.55;;;0.60;99.90;;;;;;5056216;28;20021;-80
2022/01/19 06:11:14;;;;;;;15.98;9.07;;;0.60;99.90;;;;;;5037268;28;20025;-80
2022/01/19 06:13:40;;;;;;;20.75;10.32;;;0.60;99.90;;;;;;5034883;28;20040;-80
2022/01/19 06:16:06;;;;;;;18.15;9.45;;;0.60;99.90;;;;;;5047218;28;20052;-82
2022/01/19 06:18:33;;;;;;;18.92;9.40;;;0.60;99.90;;;;;;5045138;28;20037;-81
2022/01/19 06:20:58;;;;;;;18.45;10.05;;;0.60;99.90;;;;;;5047405;28;20017;-81
2022/01/19 06:23:24;;;;;;;21.50;10.23;;;0.60;99.90;;;;;;5046966;28;20033;-82
2022/01/19 06:25:51;;;;;;;22.83;10.63;;;0.50;99.90;;;;;;5047580;28;20429;-81
2022/01/19 06:28:17;;;;;;;18.48;10.27;;;0.50;99.90;;;;;;5046173;28;20033;-81
2022/01/19 06:30:42;;;;;;;18.88;10.10;;;0.40;99.90;;;;;;5046138;28;20088;-80
2022/01/19 06:33:08;;;;;;;16.75;9.63;;;0.40;99.90;;;;;;5045746;28;20032;-80
2022/01/19 06:35:34;;;;;;;21.52;10.60;;;0.50;99.90;;;;;;5046849;28;20021;-81
2022/01/19 06:38:00;;;;;;;31.52;12.35;;;0.40;99.90;;;;;;5026481;28;20115;-81
2022/01/19 06:40:27;;;;;;;22.15;12.07;;;0.40;99.90;;;;;;5030488;28;20041;-81
2022/01/19 06:42:54;;;;;;;21.48;10.50;;;0.30;99.90;;;;;;5042703;28;20005;-81
2022/01/19 06:45:22;;;;;;;23.42;10.98;;;0.30;99.90;;;;;;5040719;28;20030;-80
2022/01/19 06:47:48;;;;;;;19.13;10.48;;;0.40;99.90;;;;;;5039445;28;20022;-81
2022/01/19 06:50:18;;;;;;;21.10;10.77;;;0.40;99.90;;;;;;5040089;28;20048;-81
2022/01/19 06:52:45;;;;;;;20.35;10.45;;;0.50;99.90;;;;;;5022204;28;20079;-81
2022/01/19 06:55:11;;;;;;;18.08;10.07;;;0.50;99.90;;;;;;5039751;28;20057;-81
2022/01/19 06:57:36;;;;;;;19.15;10.48;;;0.50;99.90;;;;;;5041031;28;20045;-81
2022/01/19 07:00:05;;;;;;;18.55;10.60;;;0.50;99.90;;;;;;5041354;28;20180;-81
2022/01/19 07:02:30;;;;;;;19.13;10.98;;;0.60;99.90;;;;;;5040951;28;20031;-83
2022/01/19 07:04:57;;;;;;;18.45;9.85;;;0.60;99.90;;;;;;5022901;28;20061;-82
2022/01/19 07:07:22;;;;;;;17.23;9.75;;;0.60;99.90;;;;;;5038857;28;20029;-80
2022/01/19 07:09:49;;;;;;;19.33;10.10;;;0.70;99.90;;;;;;5039358;28;20029;-80
2022/01/19 07:12:15;;;;;;;19.30;10.93;;;0.70;99.90;;;;;;5033557;28;20025;-81
2022/01/19 07:14:41;;;;;;;16.83;9.57;;;0.70;99.90;;;;;;5032166;28;20079;-82
2022/01/19 07:17:07;;;;;;;18.05;10.65;;;0.80;99.90;;;;;;5026338;28;20034;-82
2022/01/19 07:19:32;;;;;;;15.77;10.02;;;0.80;99.90;;;;;;5001763;28;20022;-82
2022/01/19 07:21:58;;;;;;;17.98;10.57;;;0.80;99.90;;;;;;5020230;28;20049;-81
2022/01/19 07:24:24;;;;;;;24.85;12.95;;;0.90;99.90;;;;;;5020488;28;20022;-83
2022/01/19 07:26:49;;;;;;;26.13;12.57;;;0.90;99.90;;;;;;5025533;28;20022;-82
2022/01/19 07:29:15;;;;;;;19.50;10.85;;;1.00;99.90;;;;;;5039107;28;20037;-82
2022/01/19 07:31:42;;;;;;;20.08;11.60;;;1.00;99.90;;;;;;5039246;28;20017;-83
2022/01/19 07:34:08;;;;;;;23.02;11.95;;;1.00;99.90;;;;;;5039773;28;20069;-82
2022/01/19 07:36:35;;;;;;;20.85;11.55;;;1.00;99.90;;;;;;5021895;28;20089;-83
2022/01/19 07:39:00;;;;;;;20.60;10.77;;;1.00;99.90;;;;;;5039523;28;20025;-83
2022/01/19 07:41:26;;;;;;;20.30;12.15;;;1.10;99.90;;;;;;5040508;28;20048;-82
2022/01/19 07:43:52;;;;;;;20.75;12.25;;;1.10;99.90;;;;;;5040523;28;20029;-83
2022/01/19 07:46:18;;;;;;;21.15;11.40;;;1.10;99.90;;;;;;5040251;28;20021;-83
2022/01/19 07:48:44;;;;;;;19.45;10.98;;;1.10;99.90;;;;;;5039686;28;20025;-83
2022/01/19 07:51:10;;;;;;;19.73;10.75;;;1.10;99.90;;;;;;5033597;28;20030;-82
2022/01/19 07:53:36;;;;;;;20.52;11.25;;;1.10;99.90;;;;;;5030843;28;20091;-82
2022/01/19 07:56:03;;;;;;;17.65;10.82;;;1.20;99.90;;;;;;5021179;28;20113;-82
2022/01/19 07:58:29;;;;;;;19.15;10.50;;;1.30;99.90;;;;;;5020229;28;20026;-83
2022/01/19 08:00:55;;;;;;;18.13;10.40;;;1.30;99.90;;;;;;5035345;28;20032;-83
2022/01/19 08:03:21;;;;;;;18.88;9.45;;;1.30;99.90;;;;;;5043413;28;20130;-83
2022/01/19 08:05:47;;;;;;;15.57;9.55;;;1.30;99.90;;;;;;5038884;28;20028;-80
2022/01/19 08:08:13;;;;;;;16.77;9.93;;;1.30;99.90;;;;;;5051130;28;20056;-80
2022/01/19 08:10:42;;;;;;;14.70;9.32;;;1.40;99.90;;;;;;5053985;28;20034;-81
2022/01/19 08:13:11;;;;;;;19.55;10.48;;;1.50;99.90;;;;;;5053938;28;20021;-81
2022/01/19 08:15:37;;;;;;;22.20;11.35;;;1.70;99.90;;;;;;5029826;28;20037;-82
2022/01/19 08:18:03;;;;;;;19.33;11.60;;;1.70;99.90;;;;;;5038730;28;20034;-82
2022/01/19 08:20:29;;;;;;;16.27;10.25;;;1.60;99.90;;;;;;5043650;28;20022;-81
2022/01/19 08:22:55;;;;;;;16.40;10.82;;;1.60;99.90;;;;;;5025601;28;20559;-83
2022/01/19 08:25:21;;;;;;;23.23;12.88;;;1.70;99.90;;;;;;5042725;28;20030;-83
2022/01/19 08:27:47;;;;;;;18.73;11.75;;;1.80;99.90;;;;;;5024737;28;20026;-81
2022/01/19 08:30:14;;;;;;;23.20;11.63;;;1.80;99.90;;;;;;5007907;28;20037;-82
2022/01/19 08:32:40;;;;;;;19.00;12.18;;;1.80;99.90;;;;;;5042017;28;20224;-83
2022/01/19 08:35:08;;;;;;;19.45;11.48;;;1.90;99.90;;;;;;5027718;28;20026;-82
2022/01/19 08:37:34;;;;;;;21.05;11.15;;;1.80;99.90;;;;;;5022884;28;20061;-82
2022/01/19 08:40:02;;;;;;;18.77;10.00;;;1.90;99.90;;;;;;5022886;28;20033;-82
2022/01/19 08:42:28;;;;;;;17.15;10.20;;;2.00;99.90;;;;;;5023284;28;20025;-82
2022/01/19 08:44:54;;;;;;;20.70;12.40;;;2.10;99.90;;;;;;5031205;28;20022;-81
2022/01/19 08:47:21;;;;;;;16.63;10.75;;;2.10;99.90;;;;;;5024579;28;20067;-82
2022/01/19 08:49:46;;;;;;;16.67;10.00;;;2.20;99.90;;;;;;5024479;28;20044;-82
2022/01/19 08:52:13;;;;;;;16.90;11.18;;;2.10;99.90;;;;;;5042434;28;20373;-83
2022/01/19 08:54:38;;;;;;;18.58;11.43;;;2.10;99.90;;;;;;5040430;28;20026;-82
2022/01/19 08:57:04;;;;;;;19.25;10.77;;;2.20;99.90;;;;;;5026183;28;20099;-81
2022/01/19 08:59:31;;;;;;;19.48;10.95;;;2.30;99.90;;;;;;5024688;28;20034;-82
2022/01/19 09:01:57;;;;;;;18.27;10.73;;;2.40;99.80;;;;;;5024516;28;20045;-83
2022/01/19 09:04:24;;;;;;;19.45;11.00;;;2.50;99.80;;;;;;5040934;28;20478;-80
2022/01/19 09:06:49;;;;;;;15.65;8.90;;;2.50;99.50;;;;;;5025154;28;20040;-82
2022/01/19 09:09:15;;;;;;;15.95;10.40;;;2.60;99.40;;;;;;5043053;28;20335;-81
2022/01/19 09:11:42;;;;;;;16.50;10.25;;;2.60;98.80;;;;;;5022771;28;20044;-81
2022/01/19 09:14:10;;;;;;;17.08;10.90;;;2.60;98.50;;;;;;5031517;28;20089;-81
2022/01/19 09:16:36;;;;;;;16.25;10.77;;;2.60;98.70;;;;;;5052650;28;20034;-80
2022/01/19 09:19:03;;;;;;;15.55;10.02;;;2.70;98.60;;;;;;5028711;28;20037;-81
2022/01/19 09:21:30;;;;;;;15.35;8.80;;;2.90;98.30;;;;;;5036031;28;20029;-81
2022/01/19 09:23:56;;;;;;;11.52;7.68;;;3.10;98.40;;;;;;5050345;28;20128;-82
2022/01/19 09:26:22;;;;;;;10.30;7.82;;;3.40;98.10;;;;;;5051340;28;20037;-82
2022/01/19 09:28:48;;;;;;;14.88;8.18;;;3.70;97.20;;;;;;5048446;28;20085;-81
2022/01/19 09:31:17;;;;;;;11.77;7.75;;;3.80;96.40;;;;;;5042011;28;20037;-81
2022/01/19 09:33:51;;;;;;;14.63;9.95;;;3.80;96.20;;;;;;5051857;28;20081;-82
2022/01/19 09:36:30;;;;;;;14.55;9.63;;;3.80;95.70;;;;;;5052389;28;20025;-83
2022/01/19 09:38:56;;;;;;;16.55;10.52;;;3.90;95.00;;;;;;5051567;28;20030;-81
2022/01/19 09:41:22;;;;;;;13.63;9.02;;;3.80;94.70;;;;;;5032959;28;20022;-82
2022/01/19 09:43:48;;;;;;;15.55;9.55;;;3.80;94.60;;;;;;5011967;28;20044;-83
2022/01/19 09:46:13;;;;;;;14.93;9.65;;;3.80;94.50;;;;;;5043988;28;20029;-82
2022/01/19 09:48:40;;;;;;;14.10;8.95;;;3.70;94.40;;;;;;5045605;28;20029;-82
2022/01/19 09:51:06;;;;;;;18.77;10.38;;;3.70;94.30;;;;;;5042875;28;20010;-83
2022/01/19 09:53:32;;;;;;;14.50;9.23;;;3.50;94.40;;;;;;5044000;28;20049;-82
2022/01/19 09:55:57;;;;;;;13.25;8.90;;;3.50;94.70;;;;;;5026839;28;20392;-81
2022/01/19 09:58:23;;;;;;;12.85;8.23;;;3.70;94.80;;;;;;5024736;28;20390;-81
2022/01/19 10:00:50;;;;;;;13.05;8.32;;;3.90;94.70;;;;;;5014625;28;20048;-81
2022/01/19 10:03:23;;;;;;;14.93;9.23;;;4.10;94.00;;;;;;5043546;28;20032;-81
2022/01/19 10:06:13;;;;;;;14.93;8.55;;;4.20;93.30;;;;;;5030503;28;20450;-82
2022/01/19 10:08:44;;;;;;;12.75;8.77;;;4.20;92.90;;;;;;5004767;28;20037;-82
2022/01/19 10:17:01;;;;;;;14.02;9.02;;;4.50;92.20;;;;;;5026708;28;20037;-82
2022/01/19 10:19:50;;;;;;;15.75;9.65;;;4.40;91.70;;;;;;5013536;28;20025;-83
2022/01/19 10:22:17;;;;;;;13.35;8.57;;;4.40;92.20;;;;;;5031440;28;20025;-83
2022/01/19 10:24:48;;;;;;;12.77;8.75;;;4.50;92.30;;;;;;5014262;28;20049;-81
2022/01/19 10:27:19;;;;;;;14.50;9.50;;;4.60;91.80;;;;;;5033395;28;20048;-82
2022/01/19 10:29:46;;;;;;;14.73;9.23;;;4.60;91.40;;;;;;5031082;28;20029;-82
2022/01/19 10:32:13;;;;;;;16.00;9.85;;;4.70;91.50;;;;;;5046179;28;20439;-82
2022/01/19 10:34:39;;;;;;;18.00;10.65;;;4.80;91.40;;;;;;5033135;28;20033;-81
2022/01/19 10:37:05;;;;;;;13.68;9.45;;;4.80;91.00;;;;;;5031515;28;20017;-82
2022/01/19 10:39:48;;;;;;;18.63;10.95;;;4.80;91.10;;;;;;5028079;28;20068;-82
2022/01/19 10:42:19;;;;;;;16.27;10.05;;;4.90;90.70;;;;;;5037086;28;20032;-82
2022/01/19 10:44:47;;;;;;;12.73;7.72;;;4.90;91.00;;;;;;5048600;28;20037;-82
2022/01/19 10:47:12;;;;;;;12.90;9.13;;;4.90;91.00;;;;;;5036775;28;20041;-83
2022/01/19 10:49:56;;;;;;;13.88;9.13;;;5.10;90.70;;;;;;5028852;28;20121;-82
2022/01/19 10:52:41;;;;;;;11.73;7.70;;;5.10;90.60;;;;;;5028806;28;20022;-81
2022/01/19 10:55:28;;;;;;;12.25;8.23;;;5.20;90.50;;;;;;5024002;28;20018;-82
2022/01/19 10:57:56;;;;;;;11.82;8.02;;;5.30;90.20;;;;;;5022265;28;20442;-81
2022/01/19 11:00:22;;;;;;;14.98;8.50;;;5.40;90.00;;;;;;5049351;28;20025;-81
2022/01/19 11:02:51;;;;;;;15.73;9.48;;;5.50;90.00;;;;;;5050261;28;20079;-81
2022/01/19 11:05:18;;;;;;;15.15;9.20;;;5.60;89.30;;;;;;5050202;28;20052;-81
2022/01/19 11:07:44;;;;;;;17.60;10.52;;;5.50;88.70;;;;;;5049790;28;20029;-83
2022/01/19 11:10:18;;;;;;;15.90;9.80;;;5.50;89.20;;;;;;5051644;28;20096;-81
2022/01/19 11:12:47;;;;;;;13.65;8.60;;;5.50;89.20;;;;;;5053796;28;20005;-82
2022/01/19 11:15:15;;;;;;;11.80;7.85;;;5.60;88.90;;;;;;5054263;28;20009;-81
2022/01/19 11:17:42;;;;;;;18.77;8.95;;;5.70;88.60;;;;;;5035037;28;20039;-82
2022/01/19 11:20:12;;;;;;;14.70;8.40;;;5.70;87.70;;;;;;5022177;28;20036;-83
2022/01/19 11:23:06;;;;;;;11.63;7.70;;;5.70;87.30;;;;;;5004686;28;20034;-82
2022/01/19 11:25:47;;;;;;;11.43;7.20;;;5.70;88.30;;;;;;5023035;28;20026;-82
2022/01/19 11:28:26;;;;;;;8.48;5.82;;;5.70;87.60;;;;;;5020440;28;20060;-83
2022/01/19 11:30:53;;;;;;;13.77;7.45;;;5.90;87.30;;;;;;5041802;28;20021;-83
2022/01/19 11:33:24;;;;;;;11.95;7.47;;;6.00;86.40;;;;;;5033151;28;20062;-84
2022/01/19 11:35:56;;;;;;;12.80;7.88;;;6.00;85.60;;;;;;5026558;28;20083;-82
2022/01/19 11:38:36;;;;;;;15.38;9.80;;;6.00;85.00;;;;;;5035032;28;20031;-81
2022/01/19 11:41:25;;;;;;;13.68;9.00;;;6.10;83.10;;;;;;5052302;28;20022;-83
2022/01/19 11:43:56;;;;;;;15.52;9.25;;;6.10;82.60;;;;;;5040340;28;20478;-82
2022/01/19 11:46:26;;;;;;;14.27;8.57;;;6.10;81.50;;;;;;5042090;28;20081;-81
2022/01/19 11:48:52;;;;;;;13.23;7.82;;;6.10;81.30;;;;;;5049520;28;20018;-81
2022/01/19 11:51:26;;;;;;;15.75;7.78;;;6.10;80.00;;;;;;5022370;28;20044;-82
2022/01/19 11:54:09;;;;;;;12.45;7.68;;;6.20;79.20;;;;;;5038837;28;20037;-81
2022/01/19 11:56:57;;;;;;;11.40;7.45;;;6.20;79.30;;;;;;5022274;28;20014;-81
2022/01/19 11:59:25;;;;;;;11.98;6.75;;;6.20;78.60;;;;;;5037205;28;20352;-81
2022/01/19 12:01:51;;;;;;;13.95;7.30;;;6.30;78.30;;;;;;5045470;28;20114;-83
2022/01/19 12:04:20;;;;;;;10.18;7.35;;;6.30;77.50;;;;;;5045375;28;20029;-83
2022/01/19 12:06:47;;;;;;;10.45;7.22;;;6.40;77.60;;;;;;5042817;28;20026;-82
2022/01/19 12:09:14;;;;;;;8.52;6.40;;;6.40;75.50;;;;;;5036294;28;20113;-82
2022/01/19 12:11:53;;;;;;;10.40;6.82;;;6.50;75.40;;;;;;5023573;28;20125;-82
2022/01/19 12:17:02;;;;;;;9.75;6.35;;;6.60;73.80;;;;;;5031661;28;20089;-81
2022/01/19 12:19:29;;;;;;;;;;;6.60;74.30;;;;;;5033506;28;20021;-82
2022/01/19 12:22:12;;;;;;;11.25;7.07;;;6.70;73.50;;;;;;5044413;28;19913;-82
2022/01/19 12:24:54;;;;;;;10.70;6.70;;;6.70;73.30;;;;;;5044019;28;20045;-82
2022/01/19 12:27:19;;;;;;;11.18;7.50;;;6.70;72.60;;;;;;5046421;28;20398;-82
2022/01/19 12:30:03;;;;;;;14.38;7.93;;;6.70;72.10;;;;;;5050046;28;20017;-84
2022/01/19 12:32:34;;;;;;;13.50;8.00;;;6.70;72.20;;;;;;5048028;28;20036;-81
2022/01/19 12:35:10;;;;;;;12.98;7.50;;;6.80;71.80;;;;;;5045032;28;20029;-81
2022/01/19 12:37:37;;;;;;;10.27;7.45;;;6.80;71.50;;;;;;5059005;28;20022;-81
2022/01/19 12:40:25;;;;;;;10.93;7.03;;;6.80;71.50;;;;;;5058892;28;20016;-81
2022/01/19 12:42:56;;;;;;;10.90;6.57;;;6.80;71.40;;;;;;5058528;28;20038;-82
2022/01/19 12:45:33;;;;;;;13.13;7.60;;;6.80;71.60;;;;;;5058572;28;20052;-81
2022/01/19 12:48:07;;;;;;;10.57;7.30;;;6.90;71.60;;;;;;5058507;28;20252;-82
2022/01/19 12:50:32;;;;;;;14.05;8.52;;;7.00;71.90;;;;;;5058855;28;20142;-82
2022/01/19 12:53:04;;;;;;;10.52;7.50;;;7.00;71.70;;;;;;5058744;28;20033;-81
2022/01/19 12:55:34;;;;;;;11.07;6.80;;;7.10;71.20;;;;;;5058040;28;20085;-80
2022/01/19 12:58:00;;;;;;;11.05;7.93;;;7.20;71.60;;;;;;5058241;28;20081;-81
2022/01/19 13:00:30;;;;;;;12.38;7.40;;;7.20;70.80;;;;;;5057855;28;20017;-80
2022/01/19 13:02:57;;;;;;;11.23;7.63;;;7.20;71.00;;;;;;5057954;28;20067;-80
2022/01/19 13:05:25;;;;;;;10.52;7.32;;;7.20;71.30;;;;;;5057674;28;20009;-80
2022/01/19 13:08:00;;;;;;;12.35;8.15;;;7.30;71.80;;;;;;5057271;28;20049;-80
2022/01/19 13:13:12;;;;;;;11.60;7.60;;;7.40;70.80;;;;;;5058480;28;20040;-81
2022/01/19 13:15:58;;;;;;;11.93;7.60;;;7.40;70.70;;;;;;5055982;28;20052;-82
2022/01/19 13:18:44;;;;;;;11.07;6.18;;;7.40;71.00;;;;;;5044480;28;20053;-82
2022/01/19 13:21:19;;;;;;;11.38;6.68;;;7.40;71.10;;;;;;5054324;28;20037;-82
2022/01/19 13:24:08;;;;;;;13.77;7.68;;;7.50;70.40;;;;;;5072564;22;20263;-79
2022/01/19 13:26:45;;;;;;;11.98;7.00;;;7.50;70.50;;;;;;5035867;28;20022;-79
2022/01/19 13:29:31;;;;;;;12.30;7.47;;;7.50;70.60;;;;;;5040238;28;20059;-79
2022/01/19 13:32:03;;;;;;;9.45;6.40;;;7.60;70.20;;;;;;5040153;28;20072;-80
2022/01/19 13:34:32;;;;;;;12.85;8.27;;;7.60;69.80;;;;;;5057935;28;20017;-80
2022/01/19 13:37:02;;;;;;;10.20;6.32;;;7.60;69.90;;;;;;5056351;28;20106;-80
2022/01/19 13:39:32;;;;;;;8.55;5.78;;;7.70;70.00;;;;;;5039847;28;20067;-80
2022/01/19 13:41:59;;;;;;;10.40;7.20;;;7.70;69.80;;;;;;5058648;28;20019;-80
2022/01/19 13:44:32;;;;;;;8.57;6.03;;;7.80;68.60;;;;;;5040450;28;20112;-80
2022/01/19 13:47:15;;;;;;;7.95;5.53;;;7.80;69.00;;;;;;5057999;28;20365;-80
2022/01/19 13:49:51;;;;;;;9.60;6.55;;;7.80;69.10;;;;;;5058967;28;20046;-80
2022/01/19 13:52:24;;;;;;;12.15;6.60;;;7.90;68.40;;;;;;5058916;28;20104;-80
2022/01/19 13:54:50;;;;;;;12.38;6.88;;;7.90;68.30;;;;;;5059237;28;20048;-80
2022/01/19 13:57:27;;;;;;;10.80;6.63;;;7.90;68.10;;;;;;5056565;28;20052;-80
2022/01/19 13:59:53;;;;;;;12.10;6.97;;;7.90;68.50;;;;;;5057702;28;20021;-80
2022/01/19 14:02:20;;;;;;;9.18;6.32;;;7.90;68.50;;;;;;5048526;28;20143;-79
2022/01/19 14:04:54;;;;;;;11.30;6.68;;;7.90;68.60;;;;;;5057195;28;20040;-81
2022/01/19 14:07:20;;;;;;;12.70;6.60;;;7.80;68.60;;;;;;5057147;28;20251;-80
2022/01/19 14:09:48;;;;;;;10.43;6.65;;;7.80;68.60;;;;;;5038933;28;20511;-80
2022/01/19 14:12:16;;;;;;;11.93;5.45;;;7.80;68.80;;;;;;5057127;28;20095;-80
2022/01/19 14:14:59;;;;;;;9.82;6.50;;;7.80;68.90;;;;;;5038998;28;20025;-81
2022/01/19 14:17:34;;;;;;;10.60;5.88;;;7.80;68.70;;;;;;5039693;28;20033;-80
2022/01/19 14:20:01;;;;;;;13.23;6.80;;;7.80;69.00;;;;;;5037483;28;20445;-79
2022/01/19 14:22:28;;;;;;;10.02;5.88;;;7.70;68.60;;;;;;5021780;28;20017;-80
2022/01/19 14:25:04;;;;;;;8.00;5.60;;;7.70;68.90;;;;;;5037857;28;20490;-79
2022/01/19 14:27:32;;;;;;;9.63;5.88;;;7.70;68.90;;;;;;5038114;28;20109;-80
2022/01/19 14:29:59;;;;;;;14.48;6.38;;;7.70;69.10;;;;;;5041749;28;20033;-79